createdAt,value
2024-02-05T00:00:58.656Z,7.70
2024-02-05T00:03:26.607Z,8.77
2024-02-05T00:05:55.846Z,8.97
2024-02-05T00:08:23.909Z,8.00
2024-02-05T00:10:51.876Z,9.53
2024-02-05T00:13:21.045Z,10.93
2024-02-05T00:15:49.461Z,11.23
2024-02-05T00:18:17.478Z,9.87
2024-02-05T00:20:45.504Z,7.20
2024-02-05T00:23:14.724Z,12.90
2024-02-05T00:25:42.810Z,10.97
2024-02-05T00:28:11.223Z,17.97
2024-02-05T00:30:39.685Z,12.07
2024-02-05T00:33:07.765Z,13.03
2024-02-05T00:35:36.085Z,9.17
2024-02-05T00:38:05.211Z,14.93
2024-02-05T00:40:34.691Z,13.73
2024-02-05T00:43:02.981Z,9.73
2024-02-05T00:45:30.922Z,12.80
2024-02-05T00:47:59.043Z,11.30
2024-02-05T00:50:26.990Z,11.93
2024-02-05T00:52:55.002Z,9.53
2024-02-05T00:55:22.903Z,16.27
2024-02-05T00:57:52.192Z,8.93
2024-02-05T01:00:20.444Z,11.07
2024-02-05T01:02:48.376Z,17.87
2024-02-05T01:05:16.521Z,12.33
2024-02-05T01:07:44.783Z,15.47
2024-02-05T01:10:12.835Z,11.77
2024-02-05T01:12:40.852Z,16.33
2024-02-05T01:15:11.648Z,10.30
2024-02-05T01:17:39.869Z,11.27
2024-02-05T01:20:12.280Z,13.97
2024-02-05T01:22:40.722Z,16.60
2024-02-05T01:25:09.404Z,13.87
2024-02-05T01:27:37.572Z,19.47
2024-02-05T01:30:06.479Z,9.70
2024-02-05T01:32:35.752Z,14.73
2024-02-05T01:35:04.936Z,13.67
2024-02-05T01:37:32.957Z,15.57
2024-02-05T01:40:00.820Z,15.43
2024-02-05T01:42:28.795Z,12.50
2024-02-05T01:44:56.631Z,15.50
2024-02-05T01:47:24.722Z,13.27
2024-02-05T01:49:54.081Z,22.10
2024-02-05T01:52:22.565Z,17.97
2024-02-05T01:54:51.305Z,16.53
2024-02-05T01:57:19.494Z,13.37
2024-02-05T01:59:47.674Z,16.07
2024-02-05T02:02:15.665Z,14.00
2024-02-05T02:04:43.977Z,16.17
2024-02-05T02:07:13.324Z,14.17
2024-02-05T02:09:41.388Z,20.30
2024-02-05T02:12:10.014Z,13.83
2024-02-05T02:14:38.532Z,11.90
2024-02-05T02:17:06.771Z,17.40
2024-02-05T02:19:44.097Z,14.67
2024-02-05T02:22:21.654Z,14.10
2024-02-05T02:24:51.577Z,23.73
2024-02-05T02:27:19.459Z,16.27
2024-02-05T02:29:47.704Z,19.00
2024-02-05T02:32:21.794Z,20.17
2024-02-05T02:34:52.815Z,13.00
2024-02-05T02:37:22.329Z,14.20
2024-02-05T02:39:59.656Z,21.00
2024-02-05T02:42:28.481Z,23.07
2024-02-05T02:44:56.828Z,20.97
2024-02-05T02:47:24.750Z,20.33
2024-02-05T02:49:52.676Z,17.27
2024-02-05T02:52:21.156Z,21.43
2024-02-05T02:54:49.084Z,14.40
2024-02-05T02:57:18.331Z,18.20
2024-02-05T02:59:46.201Z,14.67
2024-02-05T03:02:14.026Z,15.67
2024-02-05T03:04:41.969Z,15.47
2024-02-05T03:07:09.946Z,16.30
2024-02-05T03:09:37.895Z,15.20
2024-02-05T03:12:06.474Z,23.23
2024-02-05T03:14:35.928Z,22.50
2024-02-05T03:17:04.868Z,20.97
2024-02-05T03:19:34.753Z,16.53
2024-02-05T03:22:03.070Z,19.33
2024-02-05T03:24:30.954Z,20.40
2024-02-05T03:26:59.316Z,23.97
2024-02-05T03:29:27.167Z,19.60
2024-02-05T03:31:56.505Z,19.00
2024-02-05T03:34:24.694Z,28.53
2024-02-05T03:36:52.980Z,31.67
2024-02-05T03:39:20.879Z,23.27
2024-02-05T03:41:48.839Z,17.23
2024-02-05T03:44:16.745Z,16.30
2024-02-05T03:46:44.607Z,25.30
2024-02-05T03:49:13.963Z,18.93
2024-02-05T03:51:41.912Z,21.00
2024-02-05T03:54:09.999Z,16.17
2024-02-05T03:56:39.947Z,19.83
2024-02-05T03:59:10.964Z,21.53
2024-02-05T04:01:39.135Z,23.57
2024-02-05T04:04:07.131Z,19.03
2024-02-05T04:06:36.460Z,18.53
2024-02-05T04:09:04.372Z,16.60
2024-02-05T04:11:32.232Z,18.20
2024-02-05T04:14:00.328Z,22.60
2024-02-05T04:16:28.371Z,22.27
2024-02-05T04:18:56.330Z,18.70
2024-02-05T04:21:25.607Z,23.33
2024-02-05T04:23:54.872Z,20.17
2024-02-05T04:26:23.381Z,27.07
2024-02-05T04:28:51.348Z,22.53
2024-02-05T04:31:19.485Z,26.97
2024-02-05T04:33:49.772Z,22.17
2024-02-05T04:36:18.072Z,20.00
2024-02-05T04:38:46.538Z,21.83
2024-02-05T04:41:15.897Z,19.37
2024-02-05T04:43:43.952Z,17.73
2024-02-05T04:46:13.173Z,23.33
2024-02-05T04:48:41.170Z,14.47
2024-02-05T04:51:12.512Z,18.33
2024-02-05T04:53:40.402Z,16.93
2024-02-05T04:56:09.098Z,22.37
2024-02-05T04:58:39.172Z,18.57
2024-02-05T05:01:10.209Z,24.27
2024-02-05T05:03:40.715Z,19.23
2024-02-05T05:06:08.737Z,21.47
2024-02-05T05:08:36.624Z,17.83
2024-02-05T05:11:05.145Z,18.40
2024-02-05T05:13:33.068Z,17.40
2024-02-05T05:16:04.261Z,26.73
2024-02-05T05:18:32.361Z,23.27
2024-02-05T05:21:00.344Z,19.23
2024-02-05T05:23:28.266Z,26.13
2024-02-05T05:25:56.458Z,17.30
2024-02-05T05:28:24.449Z,25.33
2024-02-05T05:30:52.389Z,21.13
2024-02-05T05:33:21.793Z,26.83
2024-02-05T05:35:49.710Z,16.90
2024-02-05T05:38:17.649Z,19.20
2024-02-05T05:40:45.536Z,23.00
2024-02-05T05:43:13.458Z,16.33
2024-02-05T05:45:41.925Z,22.27
2024-02-05T05:48:10.207Z,23.50
2024-02-05T05:50:39.423Z,16.47
2024-02-05T05:53:07.337Z,17.00
2024-02-05T05:55:35.273Z,17.73
2024-02-05T05:58:03.244Z,22.53
2024-02-05T06:00:31.246Z,15.17
2024-02-05T06:02:59.281Z,18.97
2024-02-05T06:05:27.376Z,23.67
2024-02-05T06:07:56.677Z,21.00
2024-02-05T06:10:24.610Z,15.67
2024-02-05T06:12:52.496Z,18.73
2024-02-05T06:15:20.389Z,17.70
2024-02-05T06:17:48.445Z,18.83
2024-02-05T06:20:18.234Z,26.73
2024-02-05T06:22:46.574Z,25.30
2024-02-05T06:25:15.929Z,19.07
2024-02-05T06:27:44.106Z,16.90
2024-02-05T06:30:13.261Z,19.30
2024-02-05T06:32:41.301Z,24.30
2024-02-05T06:35:10.146Z,20.33
2024-02-05T06:37:38.469Z,18.13
2024-02-05T06:40:07.840Z,13.97
2024-02-05T06:42:37.179Z,17.53
2024-02-05T06:45:08.484Z,16.17
2024-02-05T06:47:36.588Z,23.27
2024-02-05T06:50:05.088Z,22.03
2024-02-05T06:52:33.283Z,16.70
2024-02-05T06:55:01.210Z,24.57
2024-02-05T06:57:29.125Z,17.23
2024-02-05T06:59:58.409Z,19.93
2024-02-05T07:02:26.420Z,22.17
2024-02-05T07:04:54.503Z,24.60
2024-02-05T07:07:23.935Z,24.53
2024-02-05T07:09:53.304Z,23.03
2024-02-05T07:12:22.306Z,21.13
2024-02-05T07:14:50.189Z,16.47
2024-02-05T07:17:19.976Z,21.70
2024-02-05T07:19:47.898Z,19.10
2024-02-05T07:22:16.022Z,19.10
2024-02-05T07:24:46.521Z,20.57
2024-02-05T07:27:14.403Z,17.90
2024-02-05T07:29:43.490Z,16.73
2024-02-05T07:32:11.494Z,9.07
2024-02-05T07:34:41.225Z,19.37
2024-02-05T07:37:09.241Z,17.83
2024-02-05T07:39:37.198Z,15.93
2024-02-05T07:42:05.370Z,22.20
2024-02-05T07:44:33.522Z,17.90
2024-02-05T07:47:01.929Z,18.43
2024-02-05T07:49:29.982Z,17.83
2024-02-05T07:51:59.294Z,18.90
2024-02-05T07:54:29.143Z,20.30
2024-02-05T07:56:58.312Z,20.87
2024-02-05T07:59:26.456Z,16.77
2024-02-05T08:01:54.457Z,15.00
2024-02-05T08:04:22.646Z,20.13
2024-02-05T08:06:51.291Z,15.07
2024-02-05T08:09:21.721Z,14.73
2024-02-05T08:11:49.628Z,17.20
2024-02-05T08:14:18.502Z,21.60
2024-02-05T08:16:46.705Z,12.87
2024-02-05T08:19:14.731Z,11.53
2024-02-05T08:21:42.769Z,14.37
2024-02-05T08:24:10.879Z,17.27
2024-02-05T08:26:40.162Z,19.17
2024-02-05T08:29:08.051Z,13.13
2024-02-05T08:31:37.125Z,17.90
2024-02-05T08:34:05.223Z,20.47
2024-02-05T08:36:34.497Z,18.53
2024-02-05T08:39:02.373Z,20.60
2024-02-05T08:41:30.291Z,18.17
2024-02-05T08:43:59.519Z,20.07
2024-02-05T08:46:27.456Z,14.37
2024-02-05T08:48:55.395Z,12.33
2024-02-05T08:51:23.718Z,19.40
2024-02-05T08:53:51.607Z,14.17
2024-02-05T08:56:19.451Z,20.13
2024-02-05T08:58:47.813Z,18.60
2024-02-05T09:01:18.029Z,14.97
2024-02-05T09:03:46.158Z,21.27
2024-02-05T09:06:14.095Z,14.33
2024-02-05T09:08:41.976Z,18.00
2024-02-05T09:11:13.817Z,19.73
2024-02-05T09:13:43.181Z,15.80
2024-02-05T09:16:11.189Z,15.00
2024-02-05T09:18:40.754Z,15.03
2024-02-05T09:21:09.016Z,21.77
2024-02-05T09:23:38.719Z,17.20
2024-02-05T09:26:06.592Z,14.97
2024-02-05T09:28:34.767Z,19.20
2024-02-05T09:31:11.673Z,12.17
2024-02-05T09:33:42.295Z,10.77
2024-02-05T09:36:10.647Z,14.87
2024-02-05T09:38:38.960Z,18.03
2024-02-05T09:41:08.413Z,19.57
2024-02-05T09:43:36.980Z,21.07
2024-02-05T09:46:06.686Z,18.97
2024-02-05T09:48:40.885Z,15.67
2024-02-05T09:51:13.465Z,11.43
2024-02-05T09:53:42.466Z,19.03
2024-02-05T09:56:13.337Z,19.87
2024-02-05T09:58:41.287Z,20.30
2024-02-05T10:01:11.081Z,20.47
2024-02-05T10:03:39.587Z,15.20
2024-02-05T10:06:12.509Z,21.10
2024-02-05T10:08:40.971Z,16.60
2024-02-05T10:11:11.955Z,15.80
2024-02-05T10:13:40.604Z,14.93
2024-02-05T10:16:09.322Z,21.53
2024-02-05T10:18:37.261Z,18.53
2024-02-05T10:21:06.495Z,22.03
2024-02-05T10:23:35.792Z,17.37
2024-02-05T10:26:04.968Z,15.70
2024-02-05T10:28:33.133Z,20.73
2024-02-05T10:31:09.448Z,17.33
2024-02-05T10:33:37.539Z,15.23
2024-02-05T10:36:06.216Z,20.93
2024-02-05T10:38:38.499Z,17.13
2024-02-05T10:41:06.940Z,16.53
2024-02-05T10:43:35.332Z,22.80
2024-02-05T10:46:03.629Z,20.67
2024-02-05T10:48:31.998Z,15.23
2024-02-05T10:51:00.241Z,17.67
2024-02-05T10:53:28.974Z,22.93
2024-02-05T10:55:59.108Z,14.17
2024-02-05T10:58:28.109Z,13.90
2024-02-05T11:01:00.433Z,20.47
2024-02-05T11:03:30.867Z,16.57
2024-02-05T11:06:02.212Z,15.57
2024-02-05T11:08:36.100Z,14.70
2024-02-05T11:11:13.408Z,13.03
2024-02-05T11:13:49.085Z,15.07
2024-02-05T11:16:18.492Z,14.97
2024-02-05T11:18:48.820Z,18.13
2024-02-05T11:21:22.176Z,12.87
2024-02-05T11:23:51.068Z,18.20
2024-02-05T11:26:20.893Z,20.93
2024-02-05T11:28:51.466Z,14.40
2024-02-05T11:31:20.318Z,17.97
2024-02-05T11:33:48.371Z,11.17
2024-02-05T11:36:16.314Z,14.10
2024-02-05T11:38:46.286Z,13.97
2024-02-05T11:41:14.203Z,16.63
2024-02-05T11:43:43.662Z,15.17
2024-02-05T11:46:13.897Z,16.40
2024-02-05T11:48:44.110Z,11.97
2024-02-05T11:51:14.019Z,16.67
2024-02-05T11:53:47.419Z,17.13
2024-02-05T11:56:15.368Z,18.40
2024-02-05T11:58:44.599Z,14.37
2024-02-05T12:01:12.611Z,13.93
2024-02-05T12:03:40.650Z,13.10
2024-02-05T12:06:08.753Z,11.87
2024-02-05T12:08:37.871Z,16.93
2024-02-05T12:11:06.975Z,14.53
2024-02-05T12:13:36.154Z,13.80
2024-02-05T12:16:11.950Z,17.20
2024-02-05T12:18:40.035Z,12.47
2024-02-05T12:21:08.908Z,18.70
2024-02-05T12:23:39.079Z,14.57
2024-02-05T12:26:11.039Z,11.13
2024-02-05T12:28:40.194Z,18.43
2024-02-05T12:31:08.598Z,13.00
2024-02-05T12:33:38.346Z,12.90
2024-02-05T12:36:10.000Z,16.13
2024-02-05T12:38:39.557Z,13.10
2024-02-05T12:41:07.711Z,10.30
2024-02-05T12:43:36.501Z,12.30
2024-02-05T12:46:05.177Z,7.50
2024-02-05T12:48:35.395Z,15.13
2024-02-05T12:51:05.095Z,13.10
2024-02-05T12:53:32.942Z,14.10
2024-02-05T12:56:04.379Z,10.53
2024-02-05T12:58:32.449Z,18.13
2024-02-05T13:01:00.811Z,16.10
2024-02-05T13:03:34.531Z,12.07
2024-02-05T13:06:03.965Z,13.43
2024-02-05T13:08:32.696Z,17.43
2024-02-05T13:11:04.611Z,14.70
2024-02-05T13:13:32.785Z,14.40
2024-02-05T13:16:00.807Z,16.10
2024-02-05T13:18:29.135Z,18.27
2024-02-05T13:20:57.304Z,9.97
2024-02-05T13:25:55.552Z,15.33
2024-02-05T13:28:26.083Z,13.00
2024-02-05T13:30:54.055Z,13.27
2024-02-05T13:33:22.221Z,10.57
2024-02-05T13:35:50.389Z,15.17
2024-02-05T13:38:18.310Z,13.23
2024-02-05T13:40:46.138Z,12.60
2024-02-05T13:43:15.657Z,13.07
2024-02-05T13:45:45.281Z,16.53
2024-02-05T13:48:13.299Z,12.27
2024-02-05T13:50:41.234Z,15.47
2024-02-05T13:53:09.128Z,12.07
2024-02-05T13:55:37.369Z,12.97
2024-02-05T13:58:06.811Z,21.57
2024-02-05T14:00:36.113Z,21.03
2024-02-05T14:03:04.071Z,17.03
2024-02-05T14:05:33.295Z,12.23
2024-02-05T14:08:01.425Z,15.37
2024-02-05T14:10:29.435Z,14.50
2024-02-05T14:12:57.384Z,11.73
2024-02-05T14:15:25.355Z,18.10
2024-02-05T14:17:54.805Z,18.10
2024-02-05T14:20:24.632Z,17.10
2024-02-05T14:22:52.575Z,22.00
2024-02-05T14:25:21.311Z,13.67
2024-02-05T14:27:49.375Z,15.67
2024-02-05T14:30:17.314Z,12.10
2024-02-05T14:32:45.280Z,22.77
2024-02-05T14:35:14.649Z,16.33
2024-02-05T14:37:42.597Z,19.20
2024-02-05T14:40:11.458Z,16.47
2024-02-05T14:42:40.841Z,12.43
2024-02-05T14:45:09.976Z,15.50
2024-02-05T14:47:38.022Z,21.67
2024-02-05T14:50:07.130Z,16.03
2024-02-05T14:52:36.570Z,15.23
2024-02-05T14:55:04.963Z,14.40
2024-02-05T14:57:32.919Z,14.23
2024-02-05T15:00:00.846Z,14.17
2024-02-05T15:02:29.614Z,17.77
2024-02-05T15:04:58.116Z,10.37
2024-02-05T15:07:26.189Z,16.50
2024-02-05T15:09:56.350Z,20.57
2024-02-05T15:12:24.286Z,13.07
2024-02-05T15:14:52.209Z,14.70
2024-02-05T15:17:20.480Z,13.40
2024-02-05T15:19:48.605Z,12.40
2024-02-05T15:22:16.580Z,9.53
2024-02-05T15:24:44.557Z,15.40
2024-02-05T15:27:13.783Z,15.67
2024-02-05T15:29:41.825Z,14.77
2024-02-05T15:32:09.811Z,13.60
2024-02-05T15:34:37.997Z,13.07
2024-02-05T15:37:06.400Z,9.80
2024-02-05T15:39:34.293Z,11.70
2024-02-05T15:42:02.178Z,11.80
2024-02-05T15:44:33.123Z,11.97
2024-02-05T15:47:00.980Z,13.93
2024-02-05T15:49:29.237Z,13.43
2024-02-05T15:51:57.250Z,18.87
2024-02-05T15:54:25.158Z,10.77
2024-02-05T15:56:53.554Z,12.87
2024-02-05T15:59:21.801Z,15.40
2024-02-05T16:01:52.305Z,13.43
2024-02-05T16:04:20.471Z,13.00
2024-02-05T16:06:49.076Z,17.43
2024-02-05T16:09:17.160Z,17.13
2024-02-05T16:11:45.013Z,19.00
2024-02-05T16:14:12.931Z,10.20
2024-02-05T16:16:42.698Z,13.93
2024-02-05T16:19:18.082Z,10.67
2024-02-05T16:21:49.707Z,11.53
2024-02-05T16:24:17.881Z,12.50
2024-02-05T16:26:45.878Z,16.77
2024-02-05T16:29:14.280Z,9.77
2024-02-05T16:31:42.277Z,11.27
2024-02-05T16:34:12.585Z,13.97
2024-02-05T16:36:41.264Z,12.67
2024-02-05T16:39:09.178Z,12.90
2024-02-05T16:41:37.314Z,12.63
2024-02-05T16:44:05.674Z,13.23
2024-02-05T16:46:33.774Z,14.30
2024-02-05T16:49:02.202Z,14.83
2024-02-05T16:51:31.506Z,18.77
2024-02-05T16:53:59.379Z,20.73
2024-02-05T16:56:27.340Z,12.90
2024-02-05T16:58:55.182Z,14.80
2024-02-05T17:01:23.628Z,13.03
2024-02-05T17:03:52.195Z,8.77
2024-02-05T17:06:20.417Z,10.73
2024-02-05T17:08:50.473Z,11.47
2024-02-05T17:11:19.382Z,15.87
2024-02-05T17:13:47.441Z,12.17
2024-02-05T17:16:15.436Z,11.83
2024-02-05T17:18:43.428Z,14.00
2024-02-05T17:21:11.550Z,12.50
2024-02-05T17:23:39.428Z,10.80
2024-02-05T17:26:08.627Z,12.57
2024-02-05T17:28:36.645Z,11.90
2024-02-05T17:31:04.734Z,14.03
2024-02-05T17:33:32.884Z,13.17
2024-02-05T17:36:01.032Z,13.63
2024-02-05T17:38:28.883Z,17.30
2024-02-05T17:40:56.754Z,11.93
2024-02-05T17:43:26.091Z,15.90
2024-02-05T17:45:54.101Z,12.30
2024-02-05T17:48:22.177Z,19.97
2024-02-05T17:50:50.145Z,10.67
2024-02-05T17:53:18.646Z,12.20
2024-02-05T17:55:46.628Z,17.07
2024-02-05T17:58:16.427Z,11.23
2024-02-05T18:00:45.989Z,14.30
2024-02-05T18:03:15.241Z,10.07
2024-02-05T18:05:43.173Z,11.53
2024-02-05T18:08:11.264Z,10.20
2024-02-05T18:10:39.379Z,11.60
2024-02-05T18:13:07.603Z,10.37
2024-02-05T18:15:35.562Z,11.87
2024-02-05T18:18:05.291Z,9.70
2024-02-05T18:20:34.943Z,10.27
2024-02-05T18:23:02.984Z,12.17
2024-02-05T18:25:30.879Z,12.53
2024-02-05T18:27:58.839Z,12.63
2024-02-05T18:30:27.043Z,11.33
2024-02-05T18:32:54.955Z,9.00
2024-02-05T18:35:24.485Z,9.43
2024-02-05T18:37:52.513Z,14.93
2024-02-05T18:40:21.362Z,11.40
2024-02-05T18:42:49.380Z,14.67
2024-02-05T18:45:17.514Z,14.13
2024-02-05T18:47:46.368Z,10.97
2024-02-05T18:50:14.687Z,8.77
2024-02-05T18:52:44.249Z,10.70
2024-02-05T18:55:12.461Z,10.67
2024-02-05T18:57:40.438Z,10.20
2024-02-05T19:00:09.899Z,10.20
2024-02-05T19:02:37.976Z,10.23
2024-02-05T19:05:06.494Z,14.00
2024-02-05T19:07:34.581Z,11.80
2024-02-05T19:10:05.205Z,11.40
2024-02-05T19:12:34.469Z,15.83
2024-02-05T19:15:02.364Z,7.53
2024-02-05T19:17:30.243Z,11.83
2024-02-05T19:20:00.947Z,15.43
2024-02-05T19:22:29.577Z,9.47
2024-02-05T19:24:57.606Z,10.83
2024-02-05T19:27:26.967Z,11.33
2024-02-05T19:29:55.055Z,14.67
2024-02-05T19:32:22.987Z,11.00
2024-02-05T19:34:52.417Z,11.90
2024-02-05T19:37:20.404Z,13.23
2024-02-05T19:39:48.480Z,13.10
2024-02-05T19:42:16.541Z,17.93
2024-02-05T19:44:45.742Z,13.17
2024-02-05T19:47:13.767Z,15.37
2024-02-05T19:49:41.904Z,13.20
2024-02-05T19:52:10.811Z,11.07
2024-02-05T19:54:39.084Z,12.63
2024-02-05T19:57:06.997Z,16.30
2024-02-05T19:59:35.147Z,16.63
2024-02-05T20:02:04.698Z,9.37
2024-02-05T20:04:32.838Z,11.40
2024-02-05T20:07:07.333Z,17.83
2024-02-05T20:09:36.459Z,14.83
2024-02-05T20:12:08.710Z,13.20
2024-02-05T20:14:38.711Z,11.80
2024-02-05T20:17:09.943Z,12.43
2024-02-05T20:19:39.626Z,9.60
2024-02-05T20:22:08.223Z,10.57
2024-02-05T20:24:36.185Z,20.37
2024-02-05T20:27:04.538Z,13.80
2024-02-05T20:29:32.389Z,11.40
2024-02-05T20:32:00.278Z,10.27
2024-02-05T20:34:30.970Z,14.53
2024-02-05T20:36:59.895Z,12.90
2024-02-05T20:39:28.015Z,12.67
2024-02-05T20:41:55.873Z,11.57
2024-02-05T20:44:23.849Z,10.27
2024-02-05T20:46:52.147Z,13.83
2024-02-05T20:49:20.172Z,8.43
2024-02-05T20:51:49.550Z,11.70
2024-02-05T20:54:17.489Z,12.03
2024-02-05T20:56:45.549Z,11.80
2024-02-05T20:59:13.514Z,10.80
2024-02-05T21:01:41.643Z,13.90
2024-02-05T21:04:09.680Z,11.10
2024-02-05T21:06:37.618Z,9.23
2024-02-05T21:09:08.480Z,16.37
2024-02-05T21:11:36.695Z,11.27
2024-02-05T21:14:04.842Z,10.47
2024-02-05T21:16:32.878Z,13.57
2024-02-05T21:19:00.864Z,9.03
2024-02-05T21:21:28.884Z,13.70
2024-02-05T21:23:57.471Z,10.03
2024-02-05T21:26:26.718Z,7.93
2024-02-05T21:28:55.858Z,8.50
2024-02-05T21:31:24.763Z,10.43
2024-02-05T21:33:52.846Z,9.70
2024-02-05T21:36:20.843Z,8.50
2024-02-05T21:38:48.871Z,9.40
2024-02-05T21:41:16.838Z,11.57
2024-02-05T21:43:46.161Z,12.73
2024-02-05T21:46:14.105Z,12.90
2024-02-05T21:48:41.994Z,8.70
2024-02-05T21:51:10.017Z,11.13
2024-02-05T21:53:38.037Z,8.87
2024-02-05T21:56:06.554Z,7.00
2024-02-05T21:58:34.448Z,9.07
2024-02-05T22:01:04.066Z,11.37
2024-02-05T22:03:31.995Z,9.53
2024-02-05T22:06:00.032Z,9.43
2024-02-05T22:08:27.998Z,6.80
2024-02-05T22:10:55.892Z,8.30
2024-02-05T22:13:24.090Z,8.10
2024-02-05T22:15:52.018Z,12.27
2024-02-05T22:18:21.436Z,9.87
2024-02-05T22:20:51.157Z,8.97
2024-02-05T22:23:19.470Z,13.90
2024-02-05T22:25:47.560Z,9.20
2024-02-05T22:28:15.659Z,7.50
2024-02-05T22:30:43.711Z,12.27
2024-02-05T22:33:11.645Z,6.63
2024-02-05T22:35:41.502Z,8.80
2024-02-05T22:38:09.593Z,6.77
2024-02-05T22:40:37.660Z,8.43
2024-02-05T22:43:05.930Z,5.70
2024-02-05T22:45:35.871Z,7.50
2024-02-05T22:48:03.872Z,5.73
2024-02-05T22:50:32.068Z,5.27
2024-02-05T22:53:01.335Z,5.80
2024-02-05T22:55:29.500Z,8.27
2024-02-05T22:57:57.401Z,9.53
2024-02-05T23:00:28.299Z,5.33
2024-02-05T23:02:56.727Z,5.10
2024-02-05T23:05:25.258Z,10.33
2024-02-05T23:07:53.507Z,6.67
2024-02-05T23:10:24.133Z,3.53
2024-02-05T23:12:52.468Z,4.60
2024-02-05T23:15:20.325Z,5.67
2024-02-05T23:17:48.219Z,5.47
2024-02-05T23:20:16.559Z,8.97
2024-02-05T23:22:44.476Z,7.17
2024-02-05T23:25:13.969Z,8.57
2024-02-05T23:27:43.645Z,5.67
2024-02-05T23:30:11.825Z,5.30
2024-02-05T23:32:40.240Z,8.00
2024-02-05T23:35:09.280Z,8.67
2024-02-05T23:37:37.424Z,5.00
2024-02-05T23:40:06.108Z,7.43
2024-02-05T23:42:35.275Z,5.57
2024-02-05T23:45:04.851Z,10.60
2024-02-05T23:47:32.804Z,7.43
2024-02-05T23:50:00.711Z,4.77
2024-02-05T23:52:28.593Z,7.80
2024-02-05T23:54:56.547Z,8.23
2024-02-05T23:57:24.481Z,9.33
2024-02-05T23:59:52.304Z,9.03
